createdAt,value
2023-04-15T00:02:00.350Z,97078.78
2023-04-15T00:05:03.560Z,97059.84
2023-04-15T00:08:09.134Z,97063.94
2023-04-15T00:11:12.519Z,97065.13
2023-04-15T00:14:15.653Z,97063.34
2023-04-15T00:17:19.108Z,97074.88
2023-04-15T00:20:22.582Z,97074.31
2023-04-15T00:23:27.503Z,97070.28
2023-04-15T00:26:30.758Z,97076.53
2023-04-15T00:29:34.925Z,97067.56
2023-04-15T00:32:38.144Z,97057.34
2023-04-15T00:35:41.600Z,97060.00
2023-04-15T00:38:46.552Z,97049.56
2023-04-15T00:41:50.187Z,97049.91
2023-04-15T00:44:53.622Z,97045.41
2023-04-15T00:47:59.436Z,97049.00
2023-04-15T00:51:02.743Z,97051.31
2023-04-15T00:54:07.918Z,97048.72
2023-04-15T00:57:11.114Z,97047.06
2023-04-15T01:00:14.959Z,97044.19
2023-04-15T01:03:18.280Z,97039.63
2023-04-15T01:06:22.245Z,97026.16
2023-04-15T01:09:27.111Z,97018.47
2023-04-15T01:12:30.484Z,97030.31
2023-04-15T01:15:33.748Z,97024.41
2023-04-15T01:18:37.792Z,97027.03
2023-04-15T01:21:43.297Z,97021.69
2023-04-15T01:24:56.180Z,97027.41
2023-04-15T01:28:00.870Z,97027.09
2023-04-15T01:31:11.610Z,97025.25
2023-04-15T01:34:14.836Z,97019.72
2023-04-15T01:37:36.760Z,97010.84
2023-04-15T01:40:40.854Z,97018.47
2023-04-15T01:43:45.701Z,97011.13
2023-04-15T01:46:49.411Z,97002.38
2023-04-15T01:49:52.647Z,97019.94
2023-04-15T01:52:55.785Z,97008.19
2023-04-15T01:55:58.917Z,97002.22
2023-04-15T01:59:03.763Z,97008.34
2023-04-15T02:02:07.040Z,96993.06
2023-04-15T02:05:10.937Z,96999.88
2023-04-15T02:08:14.448Z,97006.53
2023-04-15T02:11:17.606Z,97002.63
2023-04-15T02:14:22.162Z,96994.72
2023-04-15T02:17:25.495Z,97004.03
2023-04-15T02:20:30.359Z,97004.03
2023-04-15T02:23:34.583Z,97007.34
2023-04-15T02:26:37.705Z,97001.88
2023-04-15T02:29:42.424Z,96925.66
2023-04-15T02:32:45.772Z,97006.59
2023-04-15T02:35:48.994Z,97004.72
2023-04-15T02:38:52.189Z,97007.34
2023-04-15T02:41:56.773Z,97006.53
2023-04-15T02:45:01.206Z,96997.97
2023-04-15T02:48:08.640Z,97014.16
2023-04-15T02:51:16.767Z,96988.34
2023-04-15T02:54:21.015Z,97011.00
2023-04-15T02:57:24.266Z,97009.25
2023-04-15T03:00:28.833Z,97008.19
2023-04-15T03:03:32.052Z,96997.38
2023-04-15T03:06:35.860Z,96999.44
2023-04-15T03:09:40.381Z,97003.19
2023-04-15T03:12:43.981Z,97010.72
2023-04-15T03:15:53.716Z,96998.63
2023-04-15T03:18:59.203Z,97001.25
2023-04-15T03:22:02.734Z,97006.41
2023-04-15T03:25:07.702Z,97015.91
2023-04-15T03:28:10.881Z,96997.44
2023-04-15T03:34:58.008Z,97009.59
2023-04-15T03:38:01.422Z,96998.63
2023-04-15T03:41:05.078Z,96998.63
2023-04-15T03:44:08.162Z,96995.91
2023-04-15T03:47:11.405Z,96994.22
2023-04-15T03:50:16.177Z,97001.13
2023-04-15T03:53:19.939Z,96991.81
2023-04-15T03:56:23.059Z,96992.34
2023-04-15T03:59:26.318Z,97002.09
2023-04-15T04:02:29.547Z,96999.44
2023-04-15T04:05:37.019Z,96995.13
2023-04-15T04:08:40.284Z,97013.56
2023-04-15T04:11:43.538Z,97014.81
2023-04-15T04:14:46.976Z,97008.59
2023-04-15T04:17:50.222Z,97011.41
2023-04-15T04:20:54.918Z,97008.75
2023-04-15T04:23:58.973Z,97013.97
2023-04-15T04:27:02.128Z,97006.94
2023-04-15T04:30:06.463Z,97008.91
2023-04-15T04:33:09.613Z,97007.84
2023-04-15T04:36:14.075Z,97020.72
2023-04-15T04:39:17.149Z,97011.97
2023-04-15T04:42:20.324Z,97015.56
2023-04-15T04:45:23.589Z,97014.53
2023-04-15T04:48:27.069Z,97024.69
2023-04-15T04:51:32.448Z,97020.16
2023-04-15T04:54:35.807Z,97020.16
2023-04-15T04:57:39.608Z,97026.06
2023-04-15T05:00:42.841Z,97021.69
2023-04-15T05:03:46.094Z,97019.78
2023-04-15T05:06:50.932Z,97024.81
2023-04-15T05:09:54.068Z,96939.81
2023-04-15T05:12:57.262Z,97010.22
2023-04-15T05:16:00.463Z,97016.81
2023-04-15T05:19:03.877Z,97005.06
2023-04-15T05:22:08.740Z,97013.94
2023-04-15T05:25:12.383Z,97020.63
2023-04-15T05:28:15.578Z,97018.88
2023-04-15T05:31:18.802Z,97027.19
2023-04-15T05:34:22.362Z,97020.13
2023-04-15T05:37:26.902Z,97022.28
2023-04-15T05:40:34.193Z,97014.84
2023-04-15T05:43:37.362Z,97022.91
2023-04-15T05:46:40.510Z,97026.00
2023-04-15T05:49:43.593Z,97028.50
2023-04-15T05:52:48.372Z,97030.50
2023-04-15T05:55:51.592Z,97037.16
2023-04-15T05:58:54.797Z,97029.88
2023-04-15T06:01:58.132Z,97033.53
2023-04-15T06:05:01.569Z,97046.09
2023-04-15T06:08:06.700Z,97043.97
2023-04-15T06:11:09.820Z,97043.81
2023-04-15T06:14:13.196Z,97036.31
2023-04-15T06:17:18.447Z,97045.66
2023-04-15T06:20:21.753Z,97039.38
2023-04-15T06:23:27.014Z,97044.44
2023-04-15T06:26:31.217Z,97038.38
2023-04-15T06:29:34.315Z,97037.31
2023-04-15T06:32:37.693Z,97039.75
2023-04-15T06:35:41.034Z,97039.06
2023-04-15T06:38:45.935Z,97031.88
2023-04-15T06:41:49.112Z,97033.00
2023-04-15T06:44:52.242Z,97029.88
2023-04-15T06:47:55.428Z,97031.44
2023-04-15T06:50:59.091Z,97023.81
2023-04-15T06:54:05.844Z,97032.13
2023-04-15T06:57:09.243Z,97028.97
2023-04-15T07:00:13.645Z,97028.69
2023-04-15T07:03:16.836Z,97018.44
2023-04-15T07:06:20.095Z,97037.91
2023-04-15T07:09:25.605Z,97032.84
2023-04-15T07:12:28.776Z,96976.91
2023-04-15T07:15:32.114Z,97020.06
2023-04-15T07:18:35.439Z,97032.25
2023-04-15T07:21:41.258Z,97034.47
2023-04-15T07:24:47.126Z,97030.41
2023-04-15T07:27:50.588Z,97027.34
2023-04-15T07:30:53.898Z,97031.16
2023-04-15T07:33:57.195Z,97034.69
2023-04-15T07:37:00.348Z,97035.47
2023-04-15T07:40:07.000Z,97034.22
2023-04-15T07:43:10.145Z,97021.38
2023-04-15T07:46:13.404Z,97020.69
2023-04-15T07:49:16.530Z,97022.69
2023-04-15T07:52:19.935Z,97033.72
2023-04-15T07:55:25.363Z,97034.38
2023-04-15T07:58:32.089Z,97037.56
2023-04-15T08:01:35.229Z,97028.09
2023-04-15T08:04:38.698Z,97030.41
2023-04-15T08:07:42.451Z,97035.91
2023-04-15T08:10:47.000Z,97030.31
2023-04-15T08:13:50.177Z,97034.19
2023-04-15T08:16:53.624Z,97034.78
2023-04-15T08:19:57.187Z,97042.44
2023-04-15T08:23:00.322Z,97028.09
2023-04-15T08:26:04.793Z,97039.34
2023-04-15T08:29:08.232Z,97053.00
2023-04-15T08:32:11.398Z,97038.25
2023-04-15T08:35:15.248Z,97047.22
2023-04-15T08:38:18.850Z,97057.06
2023-04-15T08:41:25.161Z,97050.38
2023-04-15T08:44:30.927Z,97053.91
2023-04-15T08:47:35.277Z,97057.44
2023-04-15T08:50:38.725Z,97050.69
2023-04-15T08:53:42.648Z,97051.28
2023-04-15T08:56:47.479Z,96994.81
2023-04-15T08:59:50.709Z,97069.00
2023-04-15T09:02:54.336Z,97069.34
2023-04-15T09:05:58.392Z,97067.81
2023-04-15T09:09:01.719Z,97067.13
2023-04-15T09:12:06.519Z,97061.56
2023-04-15T09:15:13.152Z,97064.88
2023-04-15T09:18:28.838Z,97077.03
2023-04-15T09:21:33.780Z,97077.56
2023-04-15T09:24:40.856Z,97076.53
2023-04-15T09:27:50.388Z,97072.53
2023-04-15T09:34:57.959Z,97087.28
2023-04-15T09:38:05.763Z,97090.19
2023-04-15T09:41:19.487Z,97090.22
2023-04-15T09:44:26.211Z,97094.34
2023-04-15T09:47:30.018Z,97098.78
2023-04-15T09:50:42.671Z,97103.19
2023-04-15T09:53:46.203Z,97093.03
2023-04-15T09:56:49.865Z,97092.84
2023-04-15T09:59:53.250Z,97104.53
2023-04-15T10:02:56.743Z,97104.53
2023-04-15T10:06:03.519Z,97105.50
2023-04-15T10:09:09.754Z,97110.25
2023-04-15T10:12:13.895Z,97104.72
2023-04-15T10:15:18.139Z,97119.00
2023-04-15T10:18:22.532Z,97122.50
2023-04-15T10:21:29.021Z,97139.66
2023-04-15T10:24:32.995Z,97149.94
2023-04-15T10:27:37.161Z,97150.16
2023-04-15T10:30:40.851Z,97143.50
2023-04-15T10:33:45.412Z,97148.44
2023-04-15T10:36:50.067Z,97149.19
2023-04-15T10:39:53.240Z,97148.44
2023-04-15T10:42:57.110Z,97154.00
2023-04-15T10:46:00.256Z,97147.31
2023-04-15T10:49:08.997Z,97150.78
2023-04-15T10:52:15.403Z,97147.41
2023-04-15T10:55:21.855Z,97147.50
2023-04-15T10:58:25.755Z,97148.13
2023-04-15T11:01:54.132Z,97140.94
2023-04-15T11:04:58.669Z,97139.34
2023-04-15T11:08:03.317Z,97142.91
2023-04-15T11:11:07.350Z,97159.22
2023-04-15T11:14:16.463Z,97155.56
2023-04-15T11:17:29.805Z,97150.06
2023-04-15T11:20:33.329Z,97147.66
2023-04-15T11:23:44.161Z,97156.88
2023-04-15T11:26:47.351Z,97152.94
2023-04-15T11:29:50.719Z,97151.50
2023-04-15T11:32:55.314Z,97155.97
2023-04-15T11:35:58.760Z,97149.22
2023-04-15T11:39:03.755Z,97158.44
2023-04-15T11:42:18.047Z,97158.72
2023-04-15T11:45:21.210Z,97159.84
2023-04-15T11:48:25.832Z,97168.59
2023-04-15T11:51:33.594Z,97159.94
2023-04-15T11:54:38.237Z,97167.22
2023-04-15T11:57:41.174Z,97167.31
2023-04-15T12:00:48.728Z,97164.88
2023-04-15T12:03:52.115Z,97171.75
2023-04-15T12:06:55.363Z,97169.59
2023-04-15T12:09:59.877Z,97176.53
2023-04-15T12:13:07.557Z,97180.88
2023-04-15T12:16:10.833Z,97175.03
2023-04-15T12:19:15.865Z,97179.16
2023-04-15T12:22:20.067Z,97189.53
2023-04-15T12:25:36.327Z,97164.97
2023-04-15T12:28:41.688Z,97182.59
2023-04-15T12:31:50.762Z,97194.56
2023-04-15T12:34:55.246Z,97173.38
2023-04-15T12:37:58.477Z,97200.03
2023-04-15T12:41:02.984Z,97203.53
2023-04-15T12:44:06.558Z,97213.72
2023-04-15T12:47:10.926Z,97212.81
2023-04-15T12:50:14.285Z,97211.81
2023-04-15T12:53:17.536Z,97212.44
2023-04-15T12:56:22.455Z,97216.88
2023-04-15T12:59:25.892Z,97219.13
2023-04-15T13:02:29.423Z,97213.41
2023-04-15T13:05:32.893Z,97201.19
2023-04-15T13:08:38.546Z,97201.00
2023-04-15T13:11:45.345Z,97218.84
2023-04-15T13:14:48.654Z,97220.16
2023-04-15T13:17:51.810Z,97224.91
2023-04-15T13:20:56.501Z,97221.31
2023-04-15T13:24:00.572Z,97235.16
2023-04-15T13:27:05.303Z,97234.41
2023-04-15T13:30:09.504Z,97243.16
2023-04-15T13:33:12.914Z,97244.91
2023-04-15T13:36:16.357Z,97243.81
2023-04-15T13:39:19.511Z,97248.84
2023-04-15T13:42:24.210Z,97244.28
2023-04-15T13:45:27.706Z,97259.97
2023-04-15T13:48:31.024Z,97251.28
2023-04-15T13:51:36.277Z,97257.47
2023-04-15T13:54:39.420Z,97250.47
2023-04-15T13:57:44.039Z,97265.03
2023-04-15T14:00:47.292Z,97266.28
2023-04-15T14:03:50.637Z,97258.47
2023-04-15T14:06:54.005Z,97270.84
2023-04-15T14:09:57.308Z,97265.84
2023-04-15T14:13:01.803Z,97273.88
2023-04-15T14:16:05.473Z,97288.03
2023-04-15T14:19:08.785Z,97304.13
2023-04-15T14:22:11.917Z,97307.16
2023-04-15T14:25:26.678Z,97318.47
2023-04-15T14:28:35.281Z,97323.41
2023-04-15T14:31:38.702Z,97322.47
2023-04-15T14:34:44.291Z,97330.00
2023-04-15T14:37:47.565Z,97334.47
2023-04-15T14:40:50.962Z,97336.53
2023-04-15T14:43:55.465Z,97335.59
2023-04-15T14:46:58.691Z,97343.25
2023-04-15T14:50:02.368Z,97355.03
2023-04-15T14:53:05.893Z,97356.31
2023-04-15T14:56:09.131Z,97357.34
2023-04-15T14:59:13.619Z,97365.94
2023-04-15T15:02:31.684Z,97363.66
2023-04-15T15:05:40.736Z,97375.22
2023-04-15T15:08:43.973Z,97372.00
2023-04-15T15:11:47.085Z,97378.00
2023-04-15T15:14:51.837Z,97382.13
2023-04-15T15:17:55.191Z,97391.53
2023-04-15T15:20:58.617Z,97395.50
2023-04-15T15:24:01.844Z,97395.28
2023-04-15T15:27:05.087Z,97398.38
2023-04-15T15:30:11.255Z,97402.41
2023-04-15T15:34:57.699Z,97406.31
2023-04-15T15:38:01.592Z,97399.19
2023-04-15T15:41:05.412Z,97411.94
2023-04-15T15:44:09.195Z,97414.94
2023-04-15T15:47:12.814Z,97429.53
2023-04-15T15:50:17.531Z,97421.00
2023-04-15T15:53:24.152Z,97430.22
2023-04-15T15:56:27.611Z,97434.31
2023-04-15T15:59:30.868Z,97442.13
2023-04-15T16:02:59.722Z,97443.09
2023-04-15T16:05:58.607Z,97455.16
2023-04-15T16:09:01.793Z,97455.41
2023-04-15T16:12:05.474Z,97465.09
2023-04-15T16:15:11.857Z,97467.47
2023-04-15T16:18:14.980Z,97472.34
2023-04-15T16:21:20.230Z,97474.50
2023-04-15T16:24:23.462Z,97488.50
2023-04-15T16:27:26.940Z,97483.34
2023-04-15T16:30:30.380Z,97485.06
2023-04-15T16:33:33.604Z,97490.38
2023-04-15T16:36:40.331Z,97492.38
2023-04-15T16:39:43.821Z,97492.81
2023-04-15T16:42:47.011Z,97494.84
2023-04-15T16:45:51.425Z,97503.31
2023-04-15T16:48:55.201Z,97510.09
2023-04-15T16:51:59.781Z,97516.00
2023-04-15T16:55:02.916Z,97518.66
2023-04-15T16:58:08.356Z,97515.81
2023-04-15T17:01:11.971Z,97526.22
2023-04-15T17:04:15.152Z,97522.91
2023-04-15T17:07:19.638Z,97531.38
2023-04-15T17:10:22.868Z,97530.47
2023-04-15T17:13:26.562Z,97544.31
2023-04-15T17:16:29.919Z,97547.59
2023-04-15T17:19:33.630Z,97547.59
2023-04-15T17:22:44.255Z,97556.22
2023-04-15T17:25:47.649Z,97558.50
2023-04-15T17:28:51.271Z,97562.16
2023-04-15T17:32:03.703Z,97563.31
2023-04-15T17:35:26.822Z,97571.88
2023-04-15T17:38:51.285Z,97571.78
2023-04-15T17:42:15.591Z,97556.75
2023-04-15T17:45:38.850Z,97572.69
2023-04-15T17:49:03.345Z,97587.22
2023-04-15T17:52:26.779Z,97586.88
2023-04-15T17:55:53.084Z,97583.84
2023-04-15T17:59:16.662Z,97597.41
2023-04-15T18:02:40.162Z,97603.47
2023-04-15T18:06:03.512Z,97601.66
2023-04-15T18:09:27.127Z,97609.59
2023-04-15T18:12:51.571Z,97606.94
2023-04-15T18:16:14.708Z,97608.63
2023-04-15T18:19:39.880Z,97614.84
2023-04-15T18:22:43.935Z,97617.44
2023-04-15T18:25:47.112Z,97629.19
2023-04-15T18:28:51.681Z,97635.31
2023-04-15T18:31:55.124Z,97637.88
2023-04-15T18:34:58.289Z,97643.81
2023-04-15T18:38:01.918Z,97649.09
2023-04-15T18:41:05.404Z,97651.47
2023-04-15T18:44:10.042Z,97651.69
2023-04-15T18:47:13.342Z,97660.34
2023-04-15T18:50:16.819Z,97669.53
2023-04-15T18:53:19.985Z,97668.06
2023-04-15T18:56:23.263Z,97669.75
2023-04-15T18:59:30.340Z,97674.69
2023-04-15T19:02:34.215Z,97674.75
2023-04-15T19:05:37.755Z,97681.81
2023-04-15T19:08:40.911Z,97694.41
2023-04-15T19:11:44.546Z,97696.13
2023-04-15T19:14:49.073Z,97675.47
2023-04-15T19:17:52.248Z,97701.28
2023-04-15T19:20:55.940Z,97701.59
2023-04-15T19:23:59.265Z,97710.06
2023-04-15T19:27:02.635Z,97712.75
2023-04-15T19:30:08.829Z,97712.72
2023-04-15T19:33:12.305Z,97713.63
2023-04-15T19:36:15.791Z,97717.38
2023-04-15T19:39:19.586Z,97717.38
2023-04-15T19:42:22.780Z,97727.00
2023-04-15T19:45:27.396Z,97715.16
2023-04-15T19:48:30.780Z,97729.38
2023-04-15T19:51:34.052Z,97732.28
2023-04-15T19:54:37.317Z,97733.06
2023-04-15T19:57:40.829Z,97738.09
2023-04-15T20:00:45.387Z,97739.19
2023-04-15T20:03:49.210Z,97743.50
2023-04-15T20:06:52.515Z,97662.94
2023-04-15T20:09:55.985Z,97752.00
2023-04-15T20:12:59.281Z,97720.25
2023-04-15T20:16:05.790Z,97748.66
2023-04-15T20:19:09.697Z,97757.31
2023-04-15T20:22:12.936Z,97749.50
2023-04-15T20:25:16.256Z,97745.53
2023-04-15T20:28:19.489Z,97759.91
2023-04-15T20:31:24.037Z,97751.47
2023-04-15T20:34:27.143Z,97756.44
2023-04-15T20:37:30.819Z,97760.09
2023-04-15T20:40:34.101Z,97771.06
2023-04-15T20:43:37.308Z,97769.16
2023-04-15T20:46:41.830Z,97761.75
2023-04-15T20:49:45.675Z,97761.13
2023-04-15T20:52:48.788Z,97778.13
2023-04-15T20:55:52.066Z,97780.06
2023-04-15T20:58:55.396Z,97780.06
2023-04-15T21:01:59.952Z,97779.25
2023-04-15T21:05:03.240Z,97774.03
2023-04-15T21:08:06.980Z,97786.06
2023-04-15T21:11:10.175Z,97789.34
2023-04-15T21:14:13.305Z,97788.50
2023-04-15T21:17:17.790Z,97789.28
2023-04-15T21:20:21.258Z,97790.34
2023-04-15T21:23:24.577Z,97788.66
2023-04-15T21:26:27.778Z,97797.13
2023-04-15T21:29:31.037Z,97795.59
2023-04-15T21:34:57.575Z,97806.81
2023-04-15T21:38:00.773Z,97814.47
2023-04-15T21:41:06.497Z,97809.94
2023-04-15T21:44:09.614Z,97809.94
2023-04-15T21:47:12.806Z,97816.00
2023-04-15T21:50:17.590Z,97820.41
2023-04-15T21:53:20.704Z,97822.63
2023-04-15T21:56:24.672Z,97826.44
2023-04-15T21:59:27.964Z,97824.72
2023-04-15T22:02:31.216Z,97825.22
2023-04-15T22:05:35.985Z,97837.59
2023-04-15T22:08:52.553Z,97838.06
2023-04-15T22:12:00.976Z,97830.63
2023-04-15T22:15:04.426Z,97845.13
2023-04-15T22:18:08.148Z,97836.56
2023-04-15T22:21:14.086Z,97836.72
2023-04-15T22:24:31.649Z,97849.44
2023-04-15T22:27:40.572Z,97849.25
2023-04-15T22:30:43.817Z,97854.41
2023-04-15T22:33:46.950Z,97858.78
2023-04-15T22:36:52.196Z,97861.31
2023-04-15T22:39:55.422Z,97860.47
2023-04-15T22:42:58.612Z,97869.84
2023-04-15T22:46:01.894Z,97871.66
2023-04-15T22:49:06.474Z,97866.44
2023-04-15T22:52:14.572Z,97874.03
2023-04-15T22:55:23.549Z,97873.28
2023-04-15T22:58:26.757Z,97883.59
2023-04-15T23:01:31.866Z,97880.09
2023-04-15T23:04:35.161Z,97884.34
2023-04-15T23:07:40.674Z,97880.97
2023-04-15T23:10:44.593Z,97884.28
2023-04-15T23:13:47.807Z,97888.72
2023-04-15T23:16:51.006Z,97892.91
2023-04-15T23:19:54.160Z,97900.69
2023-04-15T23:22:58.676Z,97894.72
2023-04-15T23:26:03.829Z,97901.34
2023-04-15T23:29:07.298Z,97909.88
2023-04-15T23:32:11.000Z,97903.09
2023-04-15T23:35:14.108Z,97903.16
2023-04-15T23:38:18.647Z,97877.22
2023-04-15T23:41:22.586Z,97901.47
2023-04-15T23:44:26.054Z,97913.53
2023-04-15T23:47:29.202Z,97911.00
2023-04-15T23:50:32.436Z,97908.44
2023-04-15T23:53:36.910Z,97905.81
2023-04-15T23:56:40.052Z,97904.06
2023-04-15T23:59:43.169Z,97907.53
